sensor_id;sensor_type;location;lat;lon;timestamp;pressure;altitude;pressure_sealevel;temperature;humidity
19236;BME280;9752;54.270;12.470;2022-09-09T00:04:15;100955.03;;;13.53;100.00
19236;BME280;9752;54.270;12.470;2022-09-09T00:09:25;100960.34;;;13.55;100.00
19236;BME280;9752;54.270;12.470;2022-09-09T00:14:35;100951.56;;;13.53;100.00
19236;BME280;9752;54.270;12.470;2022-09-09T00:19:44;100945.50;;;13.54;100.00
19236;BME280;9752;54.270;12.470;2022-09-09T00:24:52;100950.81;;;13.55;100.00
19236;BME280;9752;54.270;12.470;2022-09-09T00:29:56;100942.31;;;13.59;100.00
19236;BME280;9752;54.270;12.470;2022-09-09T00:35:04;100938.91;;;13.60;100.00
19236;BME280;9752;54.270;12.470;2022-09-09T00:40:23;100934.50;;;13.59;100.00
19236;BME280;9752;54.270;12.470;2022-09-09T00:45:42;100933.69;;;13.60;100.00
19236;BME280;9752;54.270;12.470;2022-09-09T00:50:53;100940.75;;;13.63;100.00
19236;BME280;9752;54.270;12.470;2022-09-09T00:56:06;100941.06;;;13.69;100.00
19236;BME280;9752;54.270;12.470;2022-09-09T01:01:12;100948.16;;;13.72;100.00
19236;BME280;9752;54.270;12.470;2022-09-09T01:06:22;100954.34;;;13.74;100.00
19236;BME280;9752;54.270;12.470;2022-09-09T01:11:36;100955.44;;;13.79;100.00
19236;BME280;9752;54.270;12.470;2022-09-09T01:16:46;100965.38;;;13.86;100.00
19236;BME280;9752;54.270;12.470;2022-09-09T01:21:56;100953.50;;;13.75;100.00
19236;BME280;9752;54.270;12.470;2022-09-09T01:27:06;100960.06;;;13.84;100.00
19236;BME280;9752;54.270;12.470;2022-09-09T01:32:40;100955.97;;;13.90;100.00
19236;BME280;9752;54.270;12.470;2022-09-09T01:37:43;100954.34;;;13.92;100.00
19236;BME280;9752;54.270;12.470;2022-09-09T01:42:47;100953.38;;;13.90;100.00
19236;BME280;9752;54.270;12.470;2022-09-09T01:47:50;100956.19;;;13.94;100.00
19236;BME280;9752;54.270;12.470;2022-09-09T01:53:09;100955.31;;;13.94;100.00
19236;BME280;9752;54.270;12.470;2022-09-09T01:58:25;100950.09;;;13.94;100.00
19236;BME280;9752;54.270;12.470;2022-09-09T02:03:35;100941.53;;;13.96;100.00
19236;BME280;9752;54.270;12.470;2022-09-09T02:08:53;100948.31;;;13.93;100.00
19236;BME280;9752;54.270;12.470;2022-09-09T02:14:00;100947.34;;;13.91;100.00
19236;BME280;9752;54.270;12.470;2022-09-09T02:19:06;100950.00;;;13.92;100.00
19236;BME280;9752;54.270;12.470;2022-09-09T02:24:26;100956.88;;;13.90;100.00
19236;BME280;9752;54.270;12.470;2022-09-09T02:29:42;100939.38;;;13.88;100.00
19236;BME280;9752;54.270;12.470;2022-09-09T02:34:48;100927.28;;;13.90;100.00
19236;BME280;9752;54.270;12.470;2022-09-09T02:39:51;100928.84;;;13.86;100.00
19236;BME280;9752;54.270;12.470;2022-09-09T02:44:57;100935.94;;;13.89;100.00
19236;BME280;9752;54.270;12.470;2022-09-09T02:50:09;100938.53;;;13.89;100.00
19236;BME280;9752;54.270;12.470;2022-09-09T02:55:20;100932.31;;;13.85;100.00
19236;BME280;9752;54.270;12.470;2022-09-09T03:00:28;100921.88;;;13.85;100.00
19236;BME280;9752;54.270;12.470;2022-09-09T03:05:34;100934.75;;;13.82;100.00
19236;BME280;9752;54.270;12.470;2022-09-09T03:10:36;100935.72;;;13.84;100.00
19236;BME280;9752;54.270;12.470;2022-09-09T03:15:40;100925.97;;;13.80;100.00
19236;BME280;9752;54.270;12.470;2022-09-09T03:20:46;100938.03;;;13.78;100.00
19236;BME280;9752;54.270;12.470;2022-09-09T03:25:50;100946.81;;;13.80;100.00
19236;BME280;9752;54.270;12.470;2022-09-09T03:31:00;100949.63;;;13.84;100.00
19236;BME280;9752;54.270;12.470;2022-09-09T03:36:05;100954.63;;;13.80;100.00
19236;BME280;9752;54.270;12.470;2022-09-09T03:41:09;100947.50;;;13.76;100.00
19236;BME280;9752;54.270;12.470;2022-09-09T03:46:13;100947.63;;;13.79;100.00
19236;BME280;9752;54.270;12.470;2022-09-09T03:51:15;100951.28;;;13.82;100.00
19236;BME280;9752;54.270;12.470;2022-09-09T03:56:17;100954.13;;;13.87;100.00
19236;BME280;9752;54.270;12.470;2022-09-09T04:01:23;100958.38;;;13.85;100.00
19236;BME280;9752;54.270;12.470;2022-09-09T04:06:25;100960.06;;;13.84;100.00
19236;BME280;9752;54.270;12.470;2022-09-09T04:11:27;100964.22;;;13.81;100.00
19236;BME280;9752;54.270;12.470;2022-09-09T04:16:33;100962.63;;;13.83;100.00
19236;BME280;9752;54.270;12.470;2022-09-09T04:21:37;100964.41;;;13.84;100.00
19236;BME280;9752;54.270;12.470;2022-09-09T04:26:40;100969.69;;;13.85;100.00
19236;BME280;9752;54.270;12.470;2022-09-09T04:31:43;100980.03;;;13.84;100.00
19236;BME280;9752;54.270;12.470;2022-09-09T04:36:45;100982.84;;;13.89;100.00
19236;BME280;9752;54.270;12.470;2022-09-09T04:41:47;100986.09;;;13.83;100.00
19236;BME280;9752;54.270;12.470;2022-09-09T04:46:52;100987.66;;;13.79;100.00
19236;BME280;9752;54.270;12.470;2022-09-09T04:51:54;100994.03;;;13.86;100.00
19236;BME280;9752;54.270;12.470;2022-09-09T04:56:56;100989.78;;;13.88;100.00
19236;BME280;9752;54.270;12.470;2022-09-09T05:01:59;100999.56;;;13.92;100.00
19236;BME280;9752;54.270;12.470;2022-09-09T05:07:03;100999.13;;;14.01;100.00
19236;BME280;9752;54.270;12.470;2022-09-09T05:12:06;101009.84;;;14.07;100.00
19236;BME280;9752;54.270;12.470;2022-09-09T05:17:11;101015.25;;;14.10;100.00
19236;BME280;9752;54.270;12.470;2022-09-09T05:22:18;101012.84;;;14.15;100.00
19236;BME280;9752;54.270;12.470;2022-09-09T05:27:21;101026.25;;;14.22;100.00
19236;BME280;9752;54.270;12.470;2022-09-09T05:32:25;101026.13;;;14.19;100.00
19236;BME280;9752;54.270;12.470;2022-09-09T05:37:28;101019.34;;;14.23;100.00
19236;BME280;9752;54.270;12.470;2022-09-09T05:42:30;101016.06;;;14.27;100.00
19236;BME280;9752;54.270;12.470;2022-09-09T05:47:36;101017.78;;;14.44;100.00
19236;BME280;9752;54.270;12.470;2022-09-09T05:52:40;101017.78;;;14.44;100.00
19236;BME280;9752;54.270;12.470;2022-09-09T05:57:42;101008.47;;;14.50;100.00
19236;BME280;9752;54.270;12.470;2022-09-09T06:02:52;101000.34;;;14.61;100.00
19236;BME280;9752;54.270;12.470;2022-09-09T06:07:55;100993.88;;;14.55;100.00
19236;BME280;9752;54.270;12.470;2022-09-09T06:12:58;100993.41;;;14.81;100.00
19236;BME280;9752;54.270;12.470;2022-09-09T06:18:01;100992.06;;;14.90;100.00
19236;BME280;9752;54.270;12.470;2022-09-09T06:23:03;100983.47;;;15.12;100.00
19236;BME280;9752;54.270;12.470;2022-09-09T06:28:05;100993.28;;;15.17;100.00
19236;BME280;9752;54.270;12.470;2022-09-09T06:33:09;100998.75;;;15.22;100.00
19236;BME280;9752;54.270;12.470;2022-09-09T06:38:11;100986.72;;;15.26;100.00
19236;BME280;9752;54.270;12.470;2022-09-09T06:43:12;100980.88;;;15.31;100.00
19236;BME280;9752;54.270;12.470;2022-09-09T06:48:23;100989.25;;;15.65;100.00
19236;BME280;9752;54.270;12.470;2022-09-09T06:53:26;100990.88;;;15.82;100.00
19236;BME280;9752;54.270;12.470;2022-09-09T06:58:29;100983.88;;;15.81;100.00
19236;BME280;9752;54.270;12.470;2022-09-09T07:03:35;100984.69;;;15.80;100.00
19236;BME280;9752;54.270;12.470;2022-09-09T07:08:37;100985.03;;;16.09;100.00
19236;BME280;9752;54.270;12.470;2022-09-09T07:13:40;100986.13;;;16.36;100.00
19236;BME280;9752;54.270;12.470;2022-09-09T07:18:44;100990.97;;;16.71;100.00
19236;BME280;9752;54.270;12.470;2022-09-09T07:23:46;101007.25;;;16.85;100.00
19236;BME280;9752;54.270;12.470;2022-09-09T07:28:48;101001.75;;;17.01;100.00
19236;BME280;9752;54.270;12.470;2022-09-09T07:33:52;101002.69;;;17.03;100.00
19236;BME280;9752;54.270;12.470;2022-09-09T07:38:55;100999.47;;;17.10;100.00
19236;BME280;9752;54.270;12.470;2022-09-09T07:43:57;101016.41;;;17.44;100.00
19236;BME280;9752;54.270;12.470;2022-09-09T07:49:01;101014.88;;;17.25;100.00
19236;BME280;9752;54.270;12.470;2022-09-09T07:54:09;101009.88;;;17.57;100.00
19236;BME280;9752;54.270;12.470;2022-09-09T07:59:14;101009.28;;;17.64;100.00
19236;BME280;9752;54.270;12.470;2022-09-09T08:04:19;101020.84;;;17.71;100.00
19236;BME280;9752;54.270;12.470;2022-09-09T08:09:22;101024.91;;;17.87;100.00
19236;BME280;9752;54.270;12.470;2022-09-09T08:14:26;101026.31;;;17.77;100.00
19236;BME280;9752;54.270;12.470;2022-09-09T08:19:31;101022.06;;;17.81;100.00
19236;BME280;9752;54.270;12.470;2022-09-09T08:24:36;101030.34;;;17.91;100.00
19236;BME280;9752;54.270;12.470;2022-09-09T08:29:38;101028.72;;;17.95;100.00
19236;BME280;9752;54.270;12.470;2022-09-09T08:34:42;101028.03;;;18.55;100.00
19236;BME280;9752;54.270;12.470;2022-09-09T08:39:49;101039.56;;;18.60;100.00
19236;BME280;9752;54.270;12.470;2022-09-09T08:45:11;101051.13;;;18.38;100.00
19236;BME280;9752;54.270;12.470;2022-09-09T08:50:22;101049.91;;;18.27;100.00
19236;BME280;9752;54.270;12.470;2022-09-09T08:55:37;101059.69;;;17.81;100.00
19236;BME280;9752;54.270;12.470;2022-09-09T09:00:49;101053.09;;;17.92;100.00
19236;BME280;9752;54.270;12.470;2022-09-09T09:06:01;101066.69;;;18.32;100.00
19236;BME280;9752;54.270;12.470;2022-09-09T09:11:07;101071.09;;;18.60;100.00
19236;BME280;9752;54.270;12.470;2022-09-09T09:16:19;101077.88;;;18.26;100.00
19236;BME280;9752;54.270;12.470;2022-09-09T09:21:34;101071.09;;;18.60;100.00
19236;BME280;9752;54.270;12.470;2022-09-09T09:26:39;101077.44;;;18.94;100.00
19236;BME280;9752;54.270;12.470;2022-09-09T09:31:44;101069.53;;;19.23;100.00
19236;BME280;9752;54.270;12.470;2022-09-09T09:36:54;101069.97;;;19.38;100.00
19236;BME280;9752;54.270;12.470;2022-09-09T09:41:58;101065.56;;;19.37;100.00
19236;BME280;9752;54.270;12.470;2022-09-09T09:47:13;101073.59;;;19.42;100.00
19236;BME280;9752;54.270;12.470;2022-09-09T09:52:22;101060.38;;;19.40;100.00
19236;BME280;9752;54.270;12.470;2022-09-09T09:57:26;101072.56;;;19.37;100.00
19236;BME280;9752;54.270;12.470;2022-09-09T10:02:37;101085.75;;;19.08;100.00
19236;BME280;9752;54.270;12.470;2022-09-09T10:07:45;101068.81;;;18.98;100.00
19236;BME280;9752;54.270;12.470;2022-09-09T10:12:53;101066.56;;;19.12;100.00
19236;BME280;9752;54.270;12.470;2022-09-09T10:18:07;101073.34;;;19.64;100.00
19236;BME280;9752;54.270;12.470;2022-09-09T10:23:29;101074.25;;;20.32;100.00
19236;BME280;9752;54.270;12.470;2022-09-09T10:28:53;101064.88;;;20.08;100.00
19236;BME280;9752;54.270;12.470;2022-09-09T10:34:06;101063.09;;;20.07;100.00
19236;BME280;9752;54.270;12.470;2022-09-09T10:39:25;101058.13;;;19.22;100.00
19236;BME280;9752;54.270;12.470;2022-09-09T10:44:47;101051.91;;;19.82;100.00
19236;BME280;9752;54.270;12.470;2022-09-09T10:50:10;101059.19;;;19.91;100.00
19236;BME280;9752;54.270;12.470;2022-09-09T10:55:17;101069.75;;;19.93;100.00
19236;BME280;9752;54.270;12.470;2022-09-09T11:00:21;101071.47;;;19.91;100.00
19236;BME280;9752;54.270;12.470;2022-09-09T11:05:27;101075.25;;;19.70;100.00
19236;BME280;9752;54.270;12.470;2022-09-09T11:10:38;101066.50;;;20.03;100.00
19236;BME280;9752;54.270;12.470;2022-09-09T11:15:44;101084.94;;;20.73;100.00
19236;BME280;9752;54.270;12.470;2022-09-09T11:20:50;101098.03;;;21.49;100.00
19236;BME280;9752;54.270;12.470;2022-09-09T11:25:57;101096.63;;;21.23;100.00
19236;BME280;9752;54.270;12.470;2022-09-09T11:31:16;101106.16;;;21.58;100.00
19236;BME280;9752;54.270;12.470;2022-09-09T11:36:34;101100.31;;;21.74;100.00
19236;BME280;9752;54.270;12.470;2022-09-09T11:41:41;101103.81;;;20.55;100.00
19236;BME280;9752;54.270;12.470;2022-09-09T11:46:43;101104.09;;;20.65;100.00
19236;BME280;9752;54.270;12.470;2022-09-09T11:51:47;101101.03;;;21.24;100.00
19236;BME280;9752;54.270;12.470;2022-09-09T11:56:51;101103.59;;;21.62;100.00
19236;BME280;9752;54.270;12.470;2022-09-09T12:01:55;101104.41;;;21.58;100.00
19236;BME280;9752;54.270;12.470;2022-09-09T12:07:00;101102.50;;;21.98;100.00
19236;BME280;9752;54.270;12.470;2022-09-09T12:12:22;101098.75;;;22.33;100.00
19236;BME280;9752;54.270;12.470;2022-09-09T12:17:26;101094.78;;;22.58;100.00
19236;BME280;9752;54.270;12.470;2022-09-09T12:22:35;101084.16;;;22.56;100.00
19236;BME280;9752;54.270;12.470;2022-09-09T12:27:45;101088.38;;;23.02;100.00
19236;BME280;9752;54.270;12.470;2022-09-09T12:33:00;101090.94;;;22.39;100.00
19236;BME280;9752;54.270;12.470;2022-09-09T12:38:03;101081.53;;;22.56;100.00
19236;BME280;9752;54.270;12.470;2022-09-09T12:43:20;101088.06;;;21.35;100.00
19236;BME280;9752;54.270;12.470;2022-09-09T12:48:26;101076.91;;;21.06;100.00
19236;BME280;9752;54.270;12.470;2022-09-09T12:53:33;101070.50;;;21.37;100.00
19236;BME280;9752;54.270;12.470;2022-09-09T12:58:37;101068.00;;;21.89;100.00
19236;BME280;9752;54.270;12.470;2022-09-09T13:03:42;101070.66;;;21.88;100.00
19236;BME280;9752;54.270;12.470;2022-09-09T13:08:47;101074.75;;;21.29;100.00
19236;BME280;9752;54.270;12.470;2022-09-09T13:13:52;101065.53;;;21.09;100.00
19236;BME280;9752;54.270;12.470;2022-09-09T13:18:56;101053.06;;;21.01;100.00
19236;BME280;9752;54.270;12.470;2022-09-09T13:23:57;101051.41;;;21.06;100.00
19236;BME280;9752;54.270;12.470;2022-09-09T13:29:17;101049.56;;;21.02;100.00
19236;BME280;9752;54.270;12.470;2022-09-09T13:34:27;101043.78;;;21.20;100.00
19236;BME280;9752;54.270;12.470;2022-09-09T13:39:29;101049.06;;;21.63;100.00
19236;BME280;9752;54.270;12.470;2022-09-09T13:44:36;101055.41;;;21.73;100.00
19236;BME280;9752;54.270;12.470;2022-09-09T13:49:39;101049.06;;;22.13;100.00
19236;BME280;9752;54.270;12.470;2022-09-09T13:54:41;101048.22;;;22.14;100.00
19236;BME280;9752;54.270;12.470;2022-09-09T13:59:45;101049.41;;;21.83;100.00
19236;BME280;9752;54.270;12.470;2022-09-09T14:04:47;101048.59;;;21.41;100.00
19236;BME280;9752;54.270;12.470;2022-09-09T14:09:51;101046.22;;;21.10;100.00
19236;BME280;9752;54.270;12.470;2022-09-09T14:14:54;101047.03;;;21.07;100.00
19236;BME280;9752;54.270;12.470;2022-09-09T14:19:55;101051.28;;;21.00;100.00
19236;BME280;9752;54.270;12.470;2022-09-09T14:24:57;101051.72;;;20.79;100.00
19236;BME280;9752;54.270;12.470;2022-09-09T14:30:00;101048.91;;;20.72;100.00
19236;BME280;9752;54.270;12.470;2022-09-09T14:35:02;101044.78;;;20.48;100.00
19236;BME280;9752;54.270;12.470;2022-09-09T14:40:05;101043.59;;;20.34;100.00
19236;BME280;9752;54.270;12.470;2022-09-09T14:45:10;101040.63;;;20.21;100.00
19236;BME280;9752;54.270;12.470;2022-09-09T14:50:12;101038.16;;;19.93;100.00
19236;BME280;9752;54.270;12.470;2022-09-09T14:55:14;101035.91;;;19.73;100.00
19236;BME280;9752;54.270;12.470;2022-09-09T15:00:17;101021.00;;;19.74;100.00
19236;BME280;9752;54.270;12.470;2022-09-09T15:05:19;101010.66;;;19.49;100.00
19236;BME280;9752;54.270;12.470;2022-09-09T15:10:21;101012.97;;;19.37;100.00
19236;BME280;9752;54.270;12.470;2022-09-09T15:15:24;101007.91;;;19.45;100.00
19236;BME280;9752;54.270;12.470;2022-09-09T15:20:27;101012.31;;;19.46;100.00
19236;BME280;9752;54.270;12.470;2022-09-09T15:25:28;101019.22;;;19.42;100.00
19236;BME280;9752;54.270;12.470;2022-09-09T15:30:31;101031.41;;;19.39;100.00
19236;BME280;9752;54.270;12.470;2022-09-09T15:35:33;101029.59;;;19.36;100.00
19236;BME280;9752;54.270;12.470;2022-09-09T15:40:35;101011.94;;;19.32;100.00
19236;BME280;9752;54.270;12.470;2022-09-09T15:45:38;101025.22;;;19.37;100.00
19236;BME280;9752;54.270;12.470;2022-09-09T15:50:39;101040.22;;;19.39;100.00
19236;BME280;9752;54.270;12.470;2022-09-09T15:55:41;101046.97;;;19.31;100.00
19236;BME280;9752;54.270;12.470;2022-09-09T16:00:46;101046.47;;;19.14;100.00
19236;BME280;9752;54.270;12.470;2022-09-09T16:05:50;101038.13;;;18.97;100.00
19236;BME280;9752;54.270;12.470;2022-09-09T16:10:52;101043.09;;;18.88;100.00
19236;BME280;9752;54.270;12.470;2022-09-09T16:15:55;101040.38;;;18.85;100.00
19236;BME280;9752;54.270;12.470;2022-09-09T16:20:58;101051.41;;;18.75;100.00
19236;BME280;9752;54.270;12.470;2022-09-09T16:26:01;101052.72;;;18.60;100.00
19236;BME280;9752;54.270;12.470;2022-09-09T16:31:06;101056.44;;;18.40;100.00
19236;BME280;9752;54.270;12.470;2022-09-09T16:36:09;101037.09;;;18.10;100.00
19236;BME280;9752;54.270;12.470;2022-09-09T16:41:13;101037.34;;;17.92;100.00
19236;BME280;9752;54.270;12.470;2022-09-09T16:46:17;101060.09;;;17.68;100.00
19236;BME280;9752;54.270;12.470;2022-09-09T16:51:21;101070.97;;;17.54;100.00
19236;BME280;9752;54.270;12.470;2022-09-09T16:56:25;101066.19;;;17.43;100.00
19236;BME280;9752;54.270;12.470;2022-09-09T17:01:31;101069.97;;;17.27;100.00
19236;BME280;9752;54.270;12.470;2022-09-09T17:06:34;101103.34;;;17.08;100.00
19236;BME280;9752;54.270;12.470;2022-09-09T17:11:37;101047.44;;;16.20;100.00
19236;BME280;9752;54.270;12.470;2022-09-09T17:16:41;101060.78;;;16.06;100.00
19236;BME280;9752;54.270;12.470;2022-09-09T17:21:43;101058.56;;;15.94;100.00
19236;BME280;9752;54.270;12.470;2022-09-09T17:26:47;101069.44;;;15.64;100.00
19236;BME280;9752;54.270;12.470;2022-09-09T17:31:50;101088.63;;;15.45;100.00
19236;BME280;9752;54.270;12.470;2022-09-09T17:36:52;101072.88;;;15.24;100.00
19236;BME280;9752;54.270;12.470;2022-09-09T17:41:53;101084.13;;;15.03;100.00
19236;BME280;9752;54.270;12.470;2022-09-09T17:46:56;101087.81;;;14.89;100.00
19236;BME280;9752;54.270;12.470;2022-09-09T17:51:59;101118.31;;;14.90;100.00
19236;BME280;9752;54.270;12.470;2022-09-09T17:57:02;101119.53;;;14.79;100.00
19236;BME280;9752;54.270;12.470;2022-09-09T18:02:06;101128.84;;;14.74;100.00
19236;BME280;9752;54.270;12.470;2022-09-09T18:07:08;101140.34;;;14.77;100.00
19236;BME280;9752;54.270;12.470;2022-09-09T18:12:10;101138.63;;;14.78;100.00
19236;BME280;9752;54.270;12.470;2022-09-09T18:17:13;101157.88;;;14.80;100.00
19236;BME280;9752;54.270;12.470;2022-09-09T18:22:14;101168.25;;;14.78;100.00
19236;BME280;9752;54.270;12.470;2022-09-09T18:27:19;101165.69;;;14.62;100.00
19236;BME280;9752;54.270;12.470;2022-09-09T18:32:22;101184.97;;;14.48;100.00
19236;BME280;9752;54.270;12.470;2022-09-09T18:37:23;101188.31;;;14.45;100.00
19236;BME280;9752;54.270;12.470;2022-09-09T18:42:25;101198.53;;;14.40;100.00
19236;BME280;9752;54.270;12.470;2022-09-09T18:47:28;101198.34;;;14.37;100.00
19236;BME280;9752;54.270;12.470;2022-09-09T18:52:30;101206.69;;;14.30;100.00
19236;BME280;9752;54.270;12.470;2022-09-09T18:57:31;101208.56;;;14.33;100.00
19236;BME280;9752;54.270;12.470;2022-09-09T19:02:35;101209.28;;;14.30;100.00
19236;BME280;9752;54.270;12.470;2022-09-09T19:07:38;101218.03;;;14.31;100.00
19236;BME280;9752;54.270;12.470;2022-09-09T19:12:40;101216.22;;;14.30;100.00
19236;BME280;9752;54.270;12.470;2022-09-09T19:17:43;101229.06;;;14.25;100.00
19236;BME280;9752;54.270;12.470;2022-09-09T19:22:45;101232.38;;;14.22;100.00
19236;BME280;9752;54.270;12.470;2022-09-09T19:27:47;101240.19;;;14.22;100.00
19236;BME280;9752;54.270;12.470;2022-09-09T19:32:50;101242.59;;;14.18;100.00
19236;BME280;9752;54.270;12.470;2022-09-09T19:37:52;101243.38;;;14.17;100.00
19236;BME280;9752;54.270;12.470;2022-09-09T19:42:54;101243.91;;;14.10;100.00
19236;BME280;9752;54.270;12.470;2022-09-09T19:47:58;101244.38;;;14.02;100.00
19236;BME280;9752;54.270;12.470;2022-09-09T19:52:59;101251.88;;;13.96;100.00
19236;BME280;9752;54.270;12.470;2022-09-09T19:58:01;101257.00;;;13.95;100.00
19236;BME280;9752;54.270;12.470;2022-09-09T20:03:05;101258.56;;;13.91;100.00
19236;BME280;9752;54.270;12.470;2022-09-09T20:08:06;101267.84;;;13.86;100.00
19236;BME280;9752;54.270;12.470;2022-09-09T20:13:08;101273.53;;;13.79;100.00
19236;BME280;9752;54.270;12.470;2022-09-09T20:18:11;101272.22;;;13.71;100.00
19236;BME280;9752;54.270;12.470;2022-09-09T20:23:13;101285.91;;;13.66;100.00
19236;BME280;9752;54.270;12.470;2022-09-09T20:28:15;101300.38;;;13.61;100.00
19236;BME280;9752;54.270;12.470;2022-09-09T20:33:19;101297.16;;;13.51;100.00
19236;BME280;9752;54.270;12.470;2022-09-09T20:38:21;101299.69;;;13.49;100.00
19236;BME280;9752;54.270;12.470;2022-09-09T20:43:22;101298.44;;;13.42;100.00
19236;BME280;9752;54.270;12.470;2022-09-09T20:48:25;101300.63;;;13.35;100.00
19236;BME280;9752;54.270;12.470;2022-09-09T20:53:27;101301.25;;;13.31;100.00
19236;BME280;9752;54.270;12.470;2022-09-09T20:58:30;101307.97;;;13.27;100.00
19236;BME280;9752;54.270;12.470;2022-09-09T21:03:35;101309.78;;;13.28;100.00
19236;BME280;9752;54.270;12.470;2022-09-09T21:08:37;101309.69;;;13.26;100.00
19236;BME280;9752;54.270;12.470;2022-09-09T21:13:40;101314.97;;;13.13;100.00
19236;BME280;9752;54.270;12.470;2022-09-09T21:18:43;101313.38;;;13.00;100.00
19236;BME280;9752;54.270;12.470;2022-09-09T21:23:46;101303.75;;;12.84;100.00
19236;BME280;9752;54.270;12.470;2022-09-09T21:28:47;101304.00;;;12.74;100.00
19236;BME280;9752;54.270;12.470;2022-09-09T21:33:51;101303.03;;;12.72;100.00
19236;BME280;9752;54.270;12.470;2022-09-09T21:38:52;101305.38;;;12.67;100.00
19236;BME280;9752;54.270;12.470;2022-09-09T21:43:54;101313.72;;;12.77;100.00
19236;BME280;9752;54.270;12.470;2022-09-09T21:48:57;101309.50;;;12.79;100.00
19236;BME280;9752;54.270;12.470;2022-09-09T21:54:02;101318.19;;;12.64;100.00
19236;BME280;9752;54.270;12.470;2022-09-09T21:59:06;101321.03;;;12.69;100.00
19236;BME280;9752;54.270;12.470;2022-09-09T22:04:09;101311.75;;;12.44;100.00
19236;BME280;9752;54.270;12.470;2022-09-09T22:09:10;101322.84;;;12.27;100.00
19236;BME280;9752;54.270;12.470;2022-09-09T22:14:12;101321.09;;;12.13;100.00
19236;BME280;9752;54.270;12.470;2022-09-09T22:19:16;101328.66;;;12.23;100.00
19236;BME280;9752;54.270;12.470;2022-09-09T22:24:18;101326.00;;;12.08;100.00
19236;BME280;9752;54.270;12.470;2022-09-09T22:29:20;101339.72;;;12.05;100.00
19236;BME280;9752;54.270;12.470;2022-09-09T22:34:23;101341.94;;;11.99;100.00
19236;BME280;9752;54.270;12.470;2022-09-09T22:39:28;101352.09;;;12.09;100.00
19236;BME280;9752;54.270;12.470;2022-09-09T22:44:30;101355.13;;;12.02;100.00
19236;BME280;9752;54.270;12.470;2022-09-09T22:49:36;101357.94;;;11.92;100.00
19236;BME280;9752;54.270;12.470;2022-09-09T22:54:39;101373.63;;;11.80;100.00
19236;BME280;9752;54.270;12.470;2022-09-09T22:59:41;101377.91;;;11.80;100.00
19236;BME280;9752;54.270;12.470;2022-09-09T23:04:46;101374.75;;;11.97;100.00
19236;BME280;9752;54.270;12.470;2022-09-09T23:09:47;101377.75;;;11.90;100.00
19236;BME280;9752;54.270;12.470;2022-09-09T23:14:49;101380.13;;;12.00;100.00
19236;BME280;9752;54.270;12.470;2022-09-09T23:19:52;101379.00;;;12.10;100.00
19236;BME280;9752;54.270;12.470;2022-09-09T23:24:55;101385.69;;;12.06;100.00
19236;BME280;9752;54.270;12.470;2022-09-09T23:29:57;101382.50;;;12.24;100.00
19236;BME280;9752;54.270;12.470;2022-09-09T23:35:00;101380.78;;;12.24;100.00
19236;BME280;9752;54.270;12.470;2022-09-09T23:40:02;101376.50;;;12.11;100.00
19236;BME280;9752;54.270;12.470;2022-09-09T23:45:04;101363.88;;;12.18;100.00
19236;BME280;9752;54.270;12.470;2022-09-09T23:50:08;101368.00;;;12.42;100.00
19236;BME280;9752;54.270;12.470;2022-09-09T23:55:10;101365.91;;;12.37;100.00
